sensor_id;sensor_type;location;lat;lon;timestamp;temperature;humidity
18823;DHT22;9540;51.550;7.980;2023-02-28T00:02:06;-3.50;99.90
18823;DHT22;9540;51.550;7.980;2023-02-28T00:04:33;-3.60;99.90
18823;DHT22;9540;51.550;7.980;2023-02-28T00:07:00;-3.60;99.90
18823;DHT22;9540;51.550;7.980;2023-02-28T00:09:27;-3.60;99.90
18823;DHT22;9540;51.550;7.980;2023-02-28T00:11:54;-3.50;99.90
18823;DHT22;9540;51.550;7.980;2023-02-28T00:14:23;-3.50;99.90
18823;DHT22;9540;51.550;7.980;2023-02-28T00:16:49;-3.30;99.90
18823;DHT22;9540;51.550;7.980;2023-02-28T00:19:16;-3.20;99.90
18823;DHT22;9540;51.550;7.980;2023-02-28T00:21:43;-3.00;99.90
18823;DHT22;9540;51.550;7.980;2023-02-28T00:24:10;-2.80;99.90
18823;DHT22;9540;51.550;7.980;2023-02-28T00:26:37;-2.80;99.90
18823;DHT22;9540;51.550;7.980;2023-02-28T00:29:04;-2.90;99.90
18823;DHT22;9540;51.550;7.980;2023-02-28T00:31:33;-3.00;99.90
18823;DHT22;9540;51.550;7.980;2023-02-28T00:33:59;-3.10;99.90
18823;DHT22;9540;51.550;7.980;2023-02-28T00:36:26;-3.10;99.90
18823;DHT22;9540;51.550;7.980;2023-02-28T00:38:53;-3.30;99.90
18823;DHT22;9540;51.550;7.980;2023-02-28T00:41:20;-3.30;99.90
18823;DHT22;9540;51.550;7.980;2023-02-28T00:43:47;-3.40;99.90
18823;DHT22;9540;51.550;7.980;2023-02-28T00:46:14;-3.50;99.90
18823;DHT22;9540;51.550;7.980;2023-02-28T00:48:42;-3.60;99.90
18823;DHT22;9540;51.550;7.980;2023-02-28T00:51:10;-3.60;99.90
18823;DHT22;9540;51.550;7.980;2023-02-28T00:53:37;-3.70;99.90
18823;DHT22;9540;51.550;7.980;2023-02-28T00:56:04;-3.80;99.90
18823;DHT22;9540;51.550;7.980;2023-02-28T00:58:31;-3.80;99.90
18823;DHT22;9540;51.550;7.980;2023-02-28T01:00:58;-3.90;99.90
18823;DHT22;9540;51.550;7.980;2023-02-28T01:03:25;-3.90;99.90
18823;DHT22;9540;51.550;7.980;2023-02-28T01:05:53;-4.00;99.90
18823;DHT22;9540;51.550;7.980;2023-02-28T01:08:20;-4.10;99.90
18823;DHT22;9540;51.550;7.980;2023-02-28T01:10:47;-4.10;99.90
18823;DHT22;9540;51.550;7.980;2023-02-28T01:13:15;-4.10;99.90
18823;DHT22;9540;51.550;7.980;2023-02-28T01:15:45;-4.10;99.90
18823;DHT22;9540;51.550;7.980;2023-02-28T01:18:12;-4.10;99.90
18823;DHT22;9540;51.550;7.980;2023-02-28T01:20:39;-4.20;99.90
18823;DHT22;9540;51.550;7.980;2023-02-28T01:23:08;-4.30;99.90
18823;DHT22;9540;51.550;7.980;2023-02-28T01:25:35;-4.30;99.90
18823;DHT22;9540;51.550;7.980;2023-02-28T01:28:02;-4.30;99.90
18823;DHT22;9540;51.550;7.980;2023-02-28T01:30:30;-4.30;99.90
18823;DHT22;9540;51.550;7.980;2023-02-28T01:32:57;-4.30;99.90
18823;DHT22;9540;51.550;7.980;2023-02-28T01:35:24;-4.30;99.90
18823;DHT22;9540;51.550;7.980;2023-02-28T01:37:51;-4.40;99.90
18823;DHT22;9540;51.550;7.980;2023-02-28T01:40:20;-4.40;99.90
18823;DHT22;9540;51.550;7.980;2023-02-28T01:42:46;-4.30;99.90
18823;DHT22;9540;51.550;7.980;2023-02-28T01:45:22;-4.30;99.90
18823;DHT22;9540;51.550;7.980;2023-02-28T01:47:53;-4.30;99.90
18823;DHT22;9540;51.550;7.980;2023-02-28T01:50:23;-4.40;99.90
18823;DHT22;9540;51.550;7.980;2023-02-28T01:52:54;-4.40;99.90
18823;DHT22;9540;51.550;7.980;2023-02-28T01:55:25;-4.40;99.90
18823;DHT22;9540;51.550;7.980;2023-02-28T01:57:57;-4.40;99.90
18823;DHT22;9540;51.550;7.980;2023-02-28T02:00:26;-4.40;99.90
18823;DHT22;9540;51.550;7.980;2023-02-28T02:02:55;-4.40;99.90
18823;DHT22;9540;51.550;7.980;2023-02-28T02:05:25;-4.40;99.90
18823;DHT22;9540;51.550;7.980;2023-02-28T02:07:55;-4.40;99.90
18823;DHT22;9540;51.550;7.980;2023-02-28T02:10:29;-4.50;99.90
18823;DHT22;9540;51.550;7.980;2023-02-28T02:13:11;-4.60;99.90
18823;DHT22;9540;51.550;7.980;2023-02-28T02:15:47;-4.70;99.90
18823;DHT22;9540;51.550;7.980;2023-02-28T02:18:24;-4.80;99.90
18823;DHT22;9540;51.550;7.980;2023-02-28T02:27:22;-4.80;99.90
18823;DHT22;9540;51.550;7.980;2023-02-28T02:30:12;-4.80;99.90
18823;DHT22;9540;51.550;7.980;2023-02-28T02:35:52;-5.00;99.90
18823;DHT22;9540;51.550;7.980;2023-02-28T02:38:29;-5.00;99.90
18823;DHT22;9540;51.550;7.980;2023-02-28T02:41:04;-5.10;99.90
18823;DHT22;9540;51.550;7.980;2023-02-28T02:43:37;-5.10;99.90
18823;DHT22;9540;51.550;7.980;2023-02-28T02:46:12;-5.10;99.90
18823;DHT22;9540;51.550;7.980;2023-02-28T02:48:42;-5.10;99.90
18823;DHT22;9540;51.550;7.980;2023-02-28T02:51:14;-5.10;99.90
18823;DHT22;9540;51.550;7.980;2023-02-28T02:53:46;-5.10;99.90
18823;DHT22;9540;51.550;7.980;2023-02-28T02:56:17;-5.00;99.90
18823;DHT22;9540;51.550;7.980;2023-02-28T02:58:47;-5.00;99.90
18823;DHT22;9540;51.550;7.980;2023-02-28T03:01:18;-5.10;99.90
18823;DHT22;9540;51.550;7.980;2023-02-28T03:03:55;-5.00;99.90
18823;DHT22;9540;51.550;7.980;2023-02-28T03:06:24;-5.00;99.90
18823;DHT22;9540;51.550;7.980;2023-02-28T03:08:51;-5.00;99.90
18823;DHT22;9540;51.550;7.980;2023-02-28T03:11:18;-5.00;99.90
18823;DHT22;9540;51.550;7.980;2023-02-28T03:14:19;-5.10;99.90
18823;DHT22;9540;51.550;7.980;2023-02-28T03:17:02;-5.20;99.90
18823;DHT22;9540;51.550;7.980;2023-02-28T03:19:42;-5.20;99.90
18823;DHT22;9540;51.550;7.980;2023-02-28T03:22:26;-5.20;99.90
18823;DHT22;9540;51.550;7.980;2023-02-28T03:25:01;-5.20;99.90
18823;DHT22;9540;51.550;7.980;2023-02-28T03:27:30;-5.10;99.90
18823;DHT22;9540;51.550;7.980;2023-02-28T06:31:47;-6.20;99.90
18823;DHT22;9540;51.550;7.980;2023-02-28T06:34:14;-6.10;99.90
18823;DHT22;9540;51.550;7.980;2023-02-28T06:36:42;-6.00;99.90
18823;DHT22;9540;51.550;7.980;2023-02-28T06:39:09;-6.00;99.90
18823;DHT22;9540;51.550;7.980;2023-02-28T06:41:36;-5.90;99.90
18823;DHT22;9540;51.550;7.980;2023-02-28T06:44:05;-5.70;99.90
18823;DHT22;9540;51.550;7.980;2023-02-28T06:46:38;-5.60;99.90
18823;DHT22;9540;51.550;7.980;2023-02-28T06:49:07;-5.40;99.90
18823;DHT22;9540;51.550;7.980;2023-02-28T06:51:36;-5.30;99.90
18823;DHT22;9540;51.550;7.980;2023-02-28T06:54:04;-5.20;99.90
18823;DHT22;9540;51.550;7.980;2023-02-28T06:56:31;-5.10;99.90
18823;DHT22;9540;51.550;7.980;2023-02-28T06:58:58;-5.00;99.90
18823;DHT22;9540;51.550;7.980;2023-02-28T07:01:25;-4.80;99.90
18823;DHT22;9540;51.550;7.980;2023-02-28T07:03:54;-4.60;99.90
18823;DHT22;9540;51.550;7.980;2023-02-28T07:06:23;-4.40;99.90
18823;DHT22;9540;51.550;7.980;2023-02-28T07:08:50;-4.20;99.90
18823;DHT22;9540;51.550;7.980;2023-02-28T07:11:19;-4.10;99.90
18823;DHT22;9540;51.550;7.980;2023-02-28T07:13:47;-3.80;99.90
18823;DHT22;9540;51.550;7.980;2023-02-28T07:16:14;-3.70;99.90
18823;DHT22;9540;51.550;7.980;2023-02-28T07:18:42;-3.50;99.90
18823;DHT22;9540;51.550;7.980;2023-02-28T07:21:10;-3.40;99.90
18823;DHT22;9540;51.550;7.980;2023-02-28T07:23:39;-3.30;99.90
18823;DHT22;9540;51.550;7.980;2023-02-28T07:26:07;-3.30;99.90
18823;DHT22;9540;51.550;7.980;2023-02-28T07:28:38;-3.40;99.90
18823;DHT22;9540;51.550;7.980;2023-02-28T07:31:06;-3.30;99.90
18823;DHT22;9540;51.550;7.980;2023-02-28T07:33:33;-3.30;99.90
18823;DHT22;9540;51.550;7.980;2023-02-28T07:36:01;-3.30;99.90
18823;DHT22;9540;51.550;7.980;2023-02-28T07:38:28;-3.10;99.90
18823;DHT22;9540;51.550;7.980;2023-02-28T07:40:56;-3.00;99.90
18823;DHT22;9540;51.550;7.980;2023-02-28T07:43:23;-2.60;99.90
18823;DHT22;9540;51.550;7.980;2023-02-28T07:45:50;-2.20;99.90
18823;DHT22;9540;51.550;7.980;2023-02-28T07:48:17;-1.70;99.90
18823;DHT22;9540;51.550;7.980;2023-02-28T07:50:44;-1.30;99.90
18823;DHT22;9540;51.550;7.980;2023-02-28T07:53:13;-1.00;99.90
18823;DHT22;9540;51.550;7.980;2023-02-28T07:55:40;-0.90;99.90
18823;DHT22;9540;51.550;7.980;2023-02-28T07:58:08;-0.80;99.90
18823;DHT22;9540;51.550;7.980;2023-02-28T08:00:35;-0.60;99.90
18823;DHT22;9540;51.550;7.980;2023-02-28T08:03:02;0.10;99.90
18823;DHT22;9540;51.550;7.980;2023-02-28T08:05:29;1.00;99.90
18823;DHT22;9540;51.550;7.980;2023-02-28T08:07:57;2.40;99.90
18823;DHT22;9540;51.550;7.980;2023-02-28T08:10:24;3.60;99.90
18823;DHT22;9540;51.550;7.980;2023-02-28T08:12:51;4.80;99.90
18823;DHT22;9540;51.550;7.980;2023-02-28T08:15:19;5.80;99.90
18823;DHT22;9540;51.550;7.980;2023-02-28T08:17:46;6.50;99.90
18823;DHT22;9540;51.550;7.980;2023-02-28T08:20:13;6.30;99.90
18823;DHT22;9540;51.550;7.980;2023-02-28T08:22:40;5.00;99.90
18823;DHT22;9540;51.550;7.980;2023-02-28T08:25:08;3.80;99.90
18823;DHT22;9540;51.550;7.980;2023-02-28T08:27:35;3.40;99.90
18823;DHT22;9540;51.550;7.980;2023-02-28T08:30:03;4.20;99.90
18823;DHT22;9540;51.550;7.980;2023-02-28T08:32:32;4.90;99.90
18823;DHT22;9540;51.550;7.980;2023-02-28T08:34:59;5.00;99.90
18823;DHT22;9540;51.550;7.980;2023-02-28T08:37:26;4.20;99.90
18823;DHT22;9540;51.550;7.980;2023-02-28T08:39:53;3.50;99.90
18823;DHT22;9540;51.550;7.980;2023-02-28T08:42:20;3.30;99.90
18823;DHT22;9540;51.550;7.980;2023-02-28T08:44:47;3.10;99.90
18823;DHT22;9540;51.550;7.980;2023-02-28T08:47:14;3.40;99.90
18823;DHT22;9540;51.550;7.980;2023-02-28T08:49:42;4.00;99.90
18823;DHT22;9540;51.550;7.980;2023-02-28T08:52:09;4.20;99.90
18823;DHT22;9540;51.550;7.980;2023-02-28T08:54:36;3.70;99.90
18823;DHT22;9540;51.550;7.980;2023-02-28T08:57:03;2.70;99.90
18823;DHT22;9540;51.550;7.980;2023-02-28T08:59:31;1.80;99.90
18823;DHT22;9540;51.550;7.980;2023-02-28T09:01:58;1.20;99.90
18823;DHT22;9540;51.550;7.980;2023-02-28T09:04:25;0.70;99.90
18823;DHT22;9540;51.550;7.980;2023-02-28T09:06:53;0.60;99.90
18823;DHT22;9540;51.550;7.980;2023-02-28T09:09:20;1.10;99.90
18823;DHT22;9540;51.550;7.980;2023-02-28T09:11:47;1.90;99.90
18823;DHT22;9540;51.550;7.980;2023-02-28T09:14:14;1.90;99.90
18823;DHT22;9540;51.550;7.980;2023-02-28T09:16:42;1.50;99.90
18823;DHT22;9540;51.550;7.980;2023-02-28T09:19:11;1.20;99.90
18823;DHT22;9540;51.550;7.980;2023-02-28T09:21:38;1.60;99.90
18823;DHT22;9540;51.550;7.980;2023-02-28T09:24:07;2.90;99.90
18823;DHT22;9540;51.550;7.980;2023-02-28T09:26:34;4.30;99.90
18823;DHT22;9540;51.550;7.980;2023-02-28T09:29:01;5.00;99.90
18823;DHT22;9540;51.550;7.980;2023-02-28T09:31:29;5.20;99.90
18823;DHT22;9540;51.550;7.980;2023-02-28T09:33:57;6.30;99.90
18823;DHT22;9540;51.550;7.980;2023-02-28T09:36:26;6.80;99.90
18823;DHT22;9540;51.550;7.980;2023-02-28T09:38:53;7.60;99.90
18823;DHT22;9540;51.550;7.980;2023-02-28T09:41:24;9.10;92.60
18823;DHT22;9540;51.550;7.980;2023-02-28T09:43:56;9.80;86.20
18823;DHT22;9540;51.550;7.980;2023-02-28T09:46:33;10.30;81.70
18823;DHT22;9540;51.550;7.980;2023-02-28T09:49:05;10.50;77.50
18823;DHT22;9540;51.550;7.980;2023-02-28T09:51:39;10.70;79.10
18823;DHT22;9540;51.550;7.980;2023-02-28T09:54:14;11.30;75.30
18823;DHT22;9540;51.550;7.980;2023-02-28T09:56:49;11.60;74.00
18823;DHT22;9540;51.550;7.980;2023-02-28T09:59:29;11.30;74.10
18823;DHT22;9540;51.550;7.980;2023-02-28T10:02:04;10.90;75.70
18823;DHT22;9540;51.550;7.980;2023-02-28T10:04:42;10.50;76.80
18823;DHT22;9540;51.550;7.980;2023-02-28T10:07:18;10.50;80.50
18823;DHT22;9540;51.550;7.980;2023-02-28T10:09:50;10.40;79.50
18823;DHT22;9540;51.550;7.980;2023-02-28T10:12:20;10.30;78.70
18823;DHT22;9540;51.550;7.980;2023-02-28T10:14:50;10.50;75.00
18823;DHT22;9540;51.550;7.980;2023-02-28T10:17:20;10.30;76.10
18823;DHT22;9540;51.550;7.980;2023-02-28T10:19:56;10.10;75.00
18823;DHT22;9540;51.550;7.980;2023-02-28T10:22:28;9.60;76.00
18823;DHT22;9540;51.550;7.980;2023-02-28T10:24:59;8.90;77.30
18823;DHT22;9540;51.550;7.980;2023-02-28T10:27:31;8.20;83.40
18823;DHT22;9540;51.550;7.980;2023-02-28T10:30:01;7.90;79.70
18823;DHT22;9540;51.550;7.980;2023-02-28T10:32:31;7.20;86.90
18823;DHT22;9540;51.550;7.980;2023-02-28T10:35:01;7.00;93.30
18823;DHT22;9540;51.550;7.980;2023-02-28T10:37:33;6.80;90.10
18823;DHT22;9540;51.550;7.980;2023-02-28T10:40:04;6.80;88.50
18823;DHT22;9540;51.550;7.980;2023-02-28T10:42:33;6.20;88.30
18823;DHT22;9540;51.550;7.980;2023-02-28T10:45:12;5.60;92.60
18823;DHT22;9540;51.550;7.980;2023-02-28T10:47:49;4.90;99.90
18823;DHT22;9540;51.550;7.980;2023-02-28T10:50:28;4.60;99.90
18823;DHT22;9540;51.550;7.980;2023-02-28T10:53:07;4.70;99.90
18823;DHT22;9540;51.550;7.980;2023-02-28T10:55:35;4.90;99.90
18823;DHT22;9540;51.550;7.980;2023-02-28T10:58:22;5.20;99.90
18823;DHT22;9540;51.550;7.980;2023-02-28T11:00:49;5.30;99.90
18823;DHT22;9540;51.550;7.980;2023-02-28T11:03:25;5.10;99.90
18823;DHT22;9540;51.550;7.980;2023-02-28T11:05:52;4.90;99.90
18823;DHT22;9540;51.550;7.980;2023-02-28T11:08:19;4.80;99.90
18823;DHT22;9540;51.550;7.980;2023-02-28T11:10:48;4.90;99.90
18823;DHT22;9540;51.550;7.980;2023-02-28T11:13:20;5.10;99.90
18823;DHT22;9540;51.550;7.980;2023-02-28T11:15:51;5.20;99.90
18823;DHT22;9540;51.550;7.980;2023-02-28T11:18:24;5.20;99.90
18823;DHT22;9540;51.550;7.980;2023-02-28T11:20:53;5.30;99.90
18823;DHT22;9540;51.550;7.980;2023-02-28T11:23:20;5.40;99.90
18823;DHT22;9540;51.550;7.980;2023-02-28T11:25:51;5.50;99.90
18823;DHT22;9540;51.550;7.980;2023-02-28T11:28:29;5.50;99.90
18823;DHT22;9540;51.550;7.980;2023-02-28T11:31:02;5.50;99.90
18823;DHT22;9540;51.550;7.980;2023-02-28T11:33:32;5.60;99.90
18823;DHT22;9540;51.550;7.980;2023-02-28T11:36:11;5.80;99.90
18823;DHT22;9540;51.550;7.980;2023-02-28T11:38:38;6.10;99.90
18823;DHT22;9540;51.550;7.980;2023-02-28T11:41:14;6.20;98.70
18823;DHT22;9540;51.550;7.980;2023-02-28T11:44:00;6.00;99.90
18823;DHT22;9540;51.550;7.980;2023-02-28T11:46:35;6.00;99.90
18823;DHT22;9540;51.550;7.980;2023-02-28T11:49:13;6.30;99.90
18823;DHT22;9540;51.550;7.980;2023-02-28T11:51:47;6.50;99.80
18823;DHT22;9540;51.550;7.980;2023-02-28T11:54:28;6.40;99.90
18823;DHT22;9540;51.550;7.980;2023-02-28T11:57:00;6.80;95.40
18823;DHT22;9540;51.550;7.980;2023-02-28T11:59:42;7.30;97.10
18823;DHT22;9540;51.550;7.980;2023-02-28T12:02:26;7.80;92.90
18823;DHT22;9540;51.550;7.980;2023-02-28T12:05:22;7.90;87.00
18823;DHT22;9540;51.550;7.980;2023-02-28T12:08:00;7.30;93.50
18823;DHT22;9540;51.550;7.980;2023-02-28T12:10:30;6.70;93.50
18823;DHT22;9540;51.550;7.980;2023-02-28T12:13:10;6.50;99.90
18823;DHT22;9540;51.550;7.980;2023-02-28T12:18:57;6.80;90.90
18823;DHT22;9540;51.550;7.980;2023-02-28T12:21:34;7.60;93.10
18823;DHT22;9540;51.550;7.980;2023-02-28T12:24:32;7.80;85.60
18823;DHT22;9540;51.550;7.980;2023-02-28T12:27:09;8.00;86.50
18823;DHT22;9540;51.550;7.980;2023-02-28T12:29:43;8.20;82.30
18823;DHT22;9540;51.550;7.980;2023-02-28T12:32:15;8.30;81.90
18823;DHT22;9540;51.550;7.980;2023-02-28T12:34:46;8.30;86.40
18823;DHT22;9540;51.550;7.980;2023-02-28T12:37:17;7.70;81.90
18823;DHT22;9540;51.550;7.980;2023-02-28T12:39:51;7.50;84.80
18823;DHT22;9540;51.550;7.980;2023-02-28T12:42:25;7.10;83.70
18823;DHT22;9540;51.550;7.980;2023-02-28T12:44:58;7.30;81.80
18823;DHT22;9540;51.550;7.980;2023-02-28T12:47:27;8.00;81.20
18823;DHT22;9540;51.550;7.980;2023-02-28T12:49:56;8.50;82.80
18823;DHT22;9540;51.550;7.980;2023-02-28T12:52:31;9.10;78.20
18823;DHT22;9540;51.550;7.980;2023-02-28T12:55:11;9.00;78.30
18823;DHT22;9540;51.550;7.980;2023-02-28T12:57:46;8.90;78.70
18823;DHT22;9540;51.550;7.980;2023-02-28T13:00:19;8.50;76.40
18823;DHT22;9540;51.550;7.980;2023-02-28T13:03:21;8.20;76.50
18823;DHT22;9540;51.550;7.980;2023-02-28T13:06:08;7.80;80.30
18823;DHT22;9540;51.550;7.980;2023-02-28T13:09:00;7.70;82.90
18823;DHT22;9540;51.550;7.980;2023-02-28T13:11:29;7.30;88.70
18823;DHT22;9540;51.550;7.980;2023-02-28T13:13:59;6.70;86.90
18823;DHT22;9540;51.550;7.980;2023-02-28T13:16:27;6.40;87.60
18823;DHT22;9540;51.550;7.980;2023-02-28T13:19:10;6.40;91.50
18823;DHT22;9540;51.550;7.980;2023-02-28T13:21:43;7.20;91.50
18823;DHT22;9540;51.550;7.980;2023-02-28T13:24:12;7.60;93.50
18823;DHT22;9540;51.550;7.980;2023-02-28T13:27:23;7.40;91.20
18823;DHT22;9540;51.550;7.980;2023-02-28T13:29:51;6.70;97.20
18823;DHT22;9540;51.550;7.980;2023-02-28T13:32:34;6.30;99.90
18823;DHT22;9540;51.550;7.980;2023-02-28T13:35:36;6.00;99.90
18823;DHT22;9540;51.550;7.980;2023-02-28T13:38:23;5.80;99.90
18823;DHT22;9540;51.550;7.980;2023-02-28T13:40:50;5.60;99.90
18823;DHT22;9540;51.550;7.980;2023-02-28T13:43:18;5.60;99.90
18823;DHT22;9540;51.550;7.980;2023-02-28T13:46:06;5.40;99.90
18823;DHT22;9540;51.550;7.980;2023-02-28T13:48:34;5.10;99.90
18823;DHT22;9540;51.550;7.980;2023-02-28T13:54:19;4.90;99.90
18823;DHT22;9540;51.550;7.980;2023-02-28T13:56:56;4.90;99.90
18823;DHT22;9540;51.550;7.980;2023-02-28T13:59:33;5.00;99.90
18823;DHT22;9540;51.550;7.980;2023-02-28T14:02:17;5.20;99.90
18823;DHT22;9540;51.550;7.980;2023-02-28T14:05:01;5.20;99.90
18823;DHT22;9540;51.550;7.980;2023-02-28T14:07:30;5.30;99.90
18823;DHT22;9540;51.550;7.980;2023-02-28T14:10:02;5.60;99.90
18823;DHT22;9540;51.550;7.980;2023-02-28T14:13:00;5.80;99.90
18823;DHT22;9540;51.550;7.980;2023-02-28T14:15:37;5.90;99.90
18823;DHT22;9540;51.550;7.980;2023-02-28T14:18:15;5.70;99.90
18823;DHT22;9540;51.550;7.980;2023-02-28T14:20:43;5.60;99.90
18823;DHT22;9540;51.550;7.980;2023-02-28T14:23:20;5.60;99.90
18823;DHT22;9540;51.550;7.980;2023-02-28T14:25:58;5.80;99.90
18823;DHT22;9540;51.550;7.980;2023-02-28T14:28:43;6.20;99.90
18823;DHT22;9540;51.550;7.980;2023-02-28T14:31:13;6.60;98.60
18823;DHT22;9540;51.550;7.980;2023-02-28T14:33:57;6.60;97.80
18823;DHT22;9540;51.550;7.980;2023-02-28T14:36:30;6.60;99.90
18823;DHT22;9540;51.550;7.980;2023-02-28T14:39:00;6.60;99.90
18823;DHT22;9540;51.550;7.980;2023-02-28T14:41:32;6.50;99.90
18823;DHT22;9540;51.550;7.980;2023-02-28T14:44:01;6.40;98.50
18823;DHT22;9540;51.550;7.980;2023-02-28T14:46:37;6.30;99.90
18823;DHT22;9540;51.550;7.980;2023-02-28T14:49:05;6.30;99.90
18823;DHT22;9540;51.550;7.980;2023-02-28T14:51:33;6.40;99.90
18823;DHT22;9540;51.550;7.980;2023-02-28T14:54:02;6.30;99.90
18823;DHT22;9540;51.550;7.980;2023-02-28T14:56:35;6.20;99.90
18823;DHT22;9540;51.550;7.980;2023-02-28T14:59:03;6.00;99.90
18823;DHT22;9540;51.550;7.980;2023-02-28T15:01:31;5.90;99.90
18823;DHT22;9540;51.550;7.980;2023-02-28T15:04:01;5.80;99.90
18823;DHT22;9540;51.550;7.980;2023-02-28T15:06:29;5.70;99.90
18823;DHT22;9540;51.550;7.980;2023-02-28T15:09:08;5.60;99.90
18823;DHT22;9540;51.550;7.980;2023-02-28T15:11:37;5.60;99.90
18823;DHT22;9540;51.550;7.980;2023-02-28T15:14:05;5.50;99.90
18823;DHT22;9540;51.550;7.980;2023-02-28T15:16:36;5.50;99.90
18823;DHT22;9540;51.550;7.980;2023-02-28T15:19:07;5.40;99.90
18823;DHT22;9540;51.550;7.980;2023-02-28T15:21:43;5.50;99.90
18823;DHT22;9540;51.550;7.980;2023-02-28T15:24:13;5.40;99.90
18823;DHT22;9540;51.550;7.980;2023-02-28T15:26:46;5.30;99.90
18823;DHT22;9540;51.550;7.980;2023-02-28T15:29:16;5.10;99.90
18823;DHT22;9540;51.550;7.980;2023-02-28T15:31:45;5.10;99.90
18823;DHT22;9540;51.550;7.980;2023-02-28T15:34:19;5.00;99.90
18823;DHT22;9540;51.550;7.980;2023-02-28T15:36:47;5.00;99.90
18823;DHT22;9540;51.550;7.980;2023-02-28T15:39:20;4.90;99.90
18823;DHT22;9540;51.550;7.980;2023-02-28T15:41:48;4.90;99.90
18823;DHT22;9540;51.550;7.980;2023-02-28T15:44:17;4.80;99.90
18823;DHT22;9540;51.550;7.980;2023-02-28T15:46:57;4.80;99.90
18823;DHT22;9540;51.550;7.980;2023-02-28T15:49:25;4.70;99.90
18823;DHT22;9540;51.550;7.980;2023-02-28T15:51:53;4.60;99.90
18823;DHT22;9540;51.550;7.980;2023-02-28T15:54:23;4.60;99.90
18823;DHT22;9540;51.550;7.980;2023-02-28T15:56:56;4.50;99.90
18823;DHT22;9540;51.550;7.980;2023-02-28T15:59:26;4.50;99.90
18823;DHT22;9540;51.550;7.980;2023-02-28T16:02:15;4.40;99.90
18823;DHT22;9540;51.550;7.980;2023-02-28T16:07:39;4.30;99.90
18823;DHT22;9540;51.550;7.980;2023-02-28T16:10:09;4.20;99.90
18823;DHT22;9540;51.550;7.980;2023-02-28T16:12:39;4.10;99.90
18823;DHT22;9540;51.550;7.980;2023-02-28T16:15:14;4.00;99.90
18823;DHT22;9540;51.550;7.980;2023-02-28T16:17:43;4.00;99.90
18823;DHT22;9540;51.550;7.980;2023-02-28T16:20:13;3.90;99.90
18823;DHT22;9540;51.550;7.980;2023-02-28T16:22:41;3.80;99.90
18823;DHT22;9540;51.550;7.980;2023-02-28T16:25:11;3.70;99.90
18823;DHT22;9540;51.550;7.980;2023-02-28T16:27:40;3.60;99.90
18823;DHT22;9540;51.550;7.980;2023-02-28T16:30:16;3.60;99.90
18823;DHT22;9540;51.550;7.980;2023-02-28T16:32:45;3.60;99.90
18823;DHT22;9540;51.550;7.980;2023-02-28T16:35:12;3.50;99.90
18823;DHT22;9540;51.550;7.980;2023-02-28T16:37:39;3.40;99.90
18823;DHT22;9540;51.550;7.980;2023-02-28T16:40:08;3.30;99.90
18823;DHT22;9540;51.550;7.980;2023-02-28T16:42:37;3.20;99.90
18823;DHT22;9540;51.550;7.980;2023-02-28T16:45:15;3.20;99.90
18823;DHT22;9540;51.550;7.980;2023-02-28T16:47:43;3.20;99.90
18823;DHT22;9540;51.550;7.980;2023-02-28T16:50:14;3.10;99.90
18823;DHT22;9540;51.550;7.980;2023-02-28T16:52:41;3.00;99.90
18823;DHT22;9540;51.550;7.980;2023-02-28T16:55:09;3.00;99.90
18823;DHT22;9540;51.550;7.980;2023-02-28T16:57:36;2.90;99.90
18823;DHT22;9540;51.550;7.980;2023-02-28T17:00:04;2.80;99.90
18823;DHT22;9540;51.550;7.980;2023-02-28T17:02:33;2.70;99.90
18823;DHT22;9540;51.550;7.980;2023-02-28T17:05:00;2.60;99.90
18823;DHT22;9540;51.550;7.980;2023-02-28T17:07:27;2.50;99.90
18823;DHT22;9540;51.550;7.980;2023-02-28T17:09:54;2.30;99.90
18823;DHT22;9540;51.550;7.980;2023-02-28T17:12:21;2.00;99.90
18823;DHT22;9540;51.550;7.980;2023-02-28T17:14:48;1.70;99.90
18823;DHT22;9540;51.550;7.980;2023-02-28T17:17:17;1.50;99.90
18823;DHT22;9540;51.550;7.980;2023-02-28T17:19:46;1.20;99.90
18823;DHT22;9540;51.550;7.980;2023-02-28T17:22:13;1.10;99.90
18823;DHT22;9540;51.550;7.980;2023-02-28T17:24:40;0.90;99.90
18823;DHT22;9540;51.550;7.980;2023-02-28T17:27:10;0.70;99.90
18823;DHT22;9540;51.550;7.980;2023-02-28T17:29:38;0.50;99.90
18823;DHT22;9540;51.550;7.980;2023-02-28T17:32:05;0.30;99.90
18823;DHT22;9540;51.550;7.980;2023-02-28T17:34:32;0.10;99.90
18823;DHT22;9540;51.550;7.980;2023-02-28T17:37:00;0.00;99.90
18823;DHT22;9540;51.550;7.980;2023-02-28T17:39:27;-0.20;99.90
18823;DHT22;9540;51.550;7.980;2023-02-28T17:41:55;-0.30;99.90
18823;DHT22;9540;51.550;7.980;2023-02-28T17:44:22;-0.50;99.90
18823;DHT22;9540;51.550;7.980;2023-02-28T17:46:51;-0.60;99.90
18823;DHT22;9540;51.550;7.980;2023-02-28T17:49:19;-0.60;99.90
18823;DHT22;9540;51.550;7.980;2023-02-28T17:51:47;-0.70;99.90
18823;DHT22;9540;51.550;7.980;2023-02-28T17:54:15;-0.80;99.90
18823;DHT22;9540;51.550;7.980;2023-02-28T17:56:42;-0.90;99.90
18823;DHT22;9540;51.550;7.980;2023-02-28T17:59:10;-1.00;99.90
18823;DHT22;9540;51.550;7.980;2023-02-28T18:01:37;-1.10;99.90
18823;DHT22;9540;51.550;7.980;2023-02-28T18:04:04;-1.20;99.90
18823;DHT22;9540;51.550;7.980;2023-02-28T18:06:35;-1.40;99.90
18823;DHT22;9540;51.550;7.980;2023-02-28T18:09:18;-1.50;99.90
18823;DHT22;9540;51.550;7.980;2023-02-28T18:11:47;-1.60;99.90
18823;DHT22;9540;51.550;7.980;2023-02-28T18:14:16;-1.60;99.90
18823;DHT22;9540;51.550;7.980;2023-02-28T18:16:43;-1.60;99.90
18823;DHT22;9540;51.550;7.980;2023-02-28T18:19:11;-1.70;99.90
18823;DHT22;9540;51.550;7.980;2023-02-28T18:21:42;-1.70;99.90
18823;DHT22;9540;51.550;7.980;2023-02-28T18:24:09;-1.70;99.90
18823;DHT22;9540;51.550;7.980;2023-02-28T18:26:38;-1.80;99.90
18823;DHT22;9540;51.550;7.980;2023-02-28T18:29:06;-1.90;99.90
18823;DHT22;9540;51.550;7.980;2023-02-28T18:31:34;-2.00;99.90
18823;DHT22;9540;51.550;7.980;2023-02-28T18:34:01;-2.10;99.90
18823;DHT22;9540;51.550;7.980;2023-02-28T18:36:28;-2.10;99.90
18823;DHT22;9540;51.550;7.980;2023-02-28T18:38:55;-2.20;99.90
18823;DHT22;9540;51.550;7.980;2023-02-28T18:41:23;-2.20;99.90
18823;DHT22;9540;51.550;7.980;2023-02-28T18:43:51;-2.30;99.90
18823;DHT22;9540;51.550;7.980;2023-02-28T18:46:19;-2.30;99.90
18823;DHT22;9540;51.550;7.980;2023-02-28T18:48:46;-2.30;99.90
18823;DHT22;9540;51.550;7.980;2023-02-28T18:51:15;-2.30;99.90
18823;DHT22;9540;51.550;7.980;2023-02-28T18:53:43;-2.40;99.90
18823;DHT22;9540;51.550;7.980;2023-02-28T18:56:12;-2.50;99.90
18823;DHT22;9540;51.550;7.980;2023-02-28T18:58:39;-2.50;99.90
18823;DHT22;9540;51.550;7.980;2023-02-28T19:01:14;-2.50;99.90
18823;DHT22;9540;51.550;7.980;2023-02-28T19:03:42;-2.60;99.90
18823;DHT22;9540;51.550;7.980;2023-02-28T19:06:09;-2.60;99.90
18823;DHT22;9540;51.550;7.980;2023-02-28T19:08:36;-2.60;99.90
18823;DHT22;9540;51.550;7.980;2023-02-28T19:11:06;-2.60;99.90
18823;DHT22;9540;51.550;7.980;2023-02-28T19:13:33;-2.60;99.90
18823;DHT22;9540;51.550;7.980;2023-02-28T19:16:01;-2.70;99.90
18823;DHT22;9540;51.550;7.980;2023-02-28T19:18:29;-2.70;99.90
18823;DHT22;9540;51.550;7.980;2023-02-28T19:20:57;-2.80;99.90
18823;DHT22;9540;51.550;7.980;2023-02-28T19:23:24;-2.80;99.90
18823;DHT22;9540;51.550;7.980;2023-02-28T19:25:51;-2.80;99.90
18823;DHT22;9540;51.550;7.980;2023-02-28T19:28:18;-2.90;99.90
18823;DHT22;9540;51.550;7.980;2023-02-28T19:30:46;-2.90;99.90
18823;DHT22;9540;51.550;7.980;2023-02-28T19:33:14;-2.90;99.90
18823;DHT22;9540;51.550;7.980;2023-02-28T19:35:42;-2.80;99.90
18823;DHT22;9540;51.550;7.980;2023-02-28T19:38:09;-2.80;99.90
18823;DHT22;9540;51.550;7.980;2023-02-28T19:40:36;-2.90;99.90